createdAt,value
2022-12-11T00:00:46.258Z,98.14
2022-12-11T00:03:16.115Z,98.02
2022-12-11T00:05:44.612Z,98.10
2022-12-11T00:08:12.337Z,97.80
2022-12-11T00:10:39.619Z,97.70
2022-12-11T00:13:06.644Z,97.41
2022-12-11T00:15:33.790Z,97.25
2022-12-11T00:18:00.857Z,97.47
2022-12-11T00:20:27.806Z,97.53
2022-12-11T00:22:54.738Z,97.66
2022-12-11T00:25:21.683Z,97.91
2022-12-11T00:27:48.829Z,98.00
2022-12-11T00:30:15.886Z,97.43
2022-12-11T00:32:44.263Z,97.51
2022-12-11T00:35:11.594Z,98.49
2022-12-11T00:37:38.880Z,98.94
2022-12-11T00:40:06.370Z,98.82
2022-12-11T00:42:33.310Z,98.57
2022-12-11T00:45:00.340Z,98.71
2022-12-11T00:47:27.415Z,98.81
2022-12-11T00:49:54.363Z,98.05
2022-12-11T00:52:21.374Z,97.87
2022-12-11T00:54:48.479Z,97.67
2022-12-11T00:57:15.451Z,97.37
2022-12-11T00:59:42.385Z,97.25
2022-12-11T01:02:09.475Z,96.79
2022-12-11T01:04:37.291Z,96.48
2022-12-11T01:07:04.260Z,95.92
2022-12-11T01:09:49.887Z,95.94
2022-12-11T01:12:18.022Z,96.23
2022-12-11T01:14:45.335Z,96.24
2022-12-11T01:17:13.500Z,96.10
2022-12-11T01:19:41.413Z,95.75
2022-12-11T01:22:08.802Z,96.49
2022-12-11T01:24:36.209Z,96.41
2022-12-11T01:27:04.649Z,96.33
2022-12-11T01:29:32.730Z,96.60
2022-12-11T01:31:59.716Z,97.17
2022-12-11T01:34:30.725Z,97.66
2022-12-11T01:36:58.055Z,97.83
2022-12-11T01:39:25.504Z,98.17
2022-12-11T01:41:57.566Z,98.65
2022-12-11T01:44:24.484Z,99.51
2022-12-11T01:46:51.676Z,99.82
2022-12-11T01:49:21.614Z,100.00
2022-12-11T01:51:57.967Z,100.00
2022-12-11T01:54:28.016Z,100.00
2022-12-11T01:56:59.022Z,100.00
2022-12-11T01:59:29.536Z,100.00
2022-12-11T02:02:08.749Z,100.00
2022-12-11T02:04:39.217Z,100.00
2022-12-11T02:07:06.583Z,100.00
2022-12-11T02:09:37.473Z,100.00
2022-12-11T02:12:24.590Z,100.00
2022-12-11T02:15:30.137Z,100.00
2022-12-11T02:17:59.752Z,100.00
2022-12-11T02:20:37.001Z,99.40
2022-12-11T02:23:12.961Z,99.78
2022-12-11T02:26:10.938Z,99.54
2022-12-11T02:28:54.161Z,98.58
2022-12-11T02:31:46.005Z,98.14
2022-12-11T02:34:20.610Z,97.64
2022-12-11T02:36:52.856Z,97.11
2022-12-11T02:39:22.718Z,96.94
2022-12-11T02:41:51.894Z,96.30
2022-12-11T02:44:24.345Z,96.22
2022-12-11T02:46:52.939Z,96.69
2022-12-11T02:49:21.887Z,96.87
2022-12-11T02:51:49.645Z,96.59
2022-12-11T02:54:24.018Z,96.48
2022-12-11T02:56:59.472Z,96.54
2022-12-11T02:59:33.300Z,96.21
2022-12-11T03:02:00.996Z,96.34
2022-12-11T03:04:29.450Z,96.66
2022-12-11T03:07:00.134Z,96.74
2022-12-11T03:09:28.638Z,96.50
2022-12-11T03:11:55.699Z,95.83
2022-12-11T03:14:22.620Z,95.49
2022-12-11T03:17:01.722Z,95.55
2022-12-11T03:19:37.234Z,95.14
2022-12-11T03:22:16.558Z,95.89
2022-12-11T03:24:53.238Z,96.25
2022-12-11T03:27:28.858Z,96.06
2022-12-11T03:30:11.569Z,95.06
2022-12-11T03:32:43.533Z,94.87
2022-12-11T03:35:33.011Z,94.89
2022-12-11T03:38:05.511Z,94.51
2022-12-11T03:40:35.894Z,93.89
2022-12-11T03:43:05.328Z,94.51
2022-12-11T03:45:33.540Z,94.13
2022-12-11T03:48:02.772Z,91.82
2022-12-11T03:50:32.503Z,92.33
2022-12-11T03:53:01.895Z,92.40
2022-12-11T03:55:30.562Z,90.89
2022-12-11T03:57:57.553Z,88.86
2022-12-11T04:00:25.052Z,88.90
2022-12-11T04:03:13.541Z,89.50
2022-12-11T04:05:47.340Z,88.88
2022-12-11T04:08:15.455Z,88.62
2022-12-11T04:10:42.706Z,88.31
2022-12-11T04:13:10.737Z,87.68
2022-12-11T04:15:38.415Z,86.80
2022-12-11T04:18:25.077Z,86.53
2022-12-11T04:21:14.530Z,85.09
2022-12-11T04:23:59.953Z,85.18
2022-12-11T04:26:27.304Z,85.30
2022-12-11T04:28:54.314Z,84.75
2022-12-11T04:31:22.504Z,83.63
2022-12-11T04:33:49.592Z,83.33
2022-12-11T04:36:16.918Z,81.22
2022-12-11T04:38:43.875Z,79.52
2022-12-11T04:41:14.269Z,75.02
2022-12-11T04:43:42.072Z,74.73
2022-12-11T04:46:16.197Z,73.78
2022-12-11T04:48:43.326Z,74.73
2022-12-11T04:51:10.738Z,73.65
2022-12-11T04:53:38.019Z,68.05
2022-12-11T04:56:06.681Z,69.03
2022-12-11T04:58:33.785Z,67.71
2022-12-11T05:01:00.880Z,65.28
2022-12-11T05:03:27.697Z,66.35
2022-12-11T05:05:54.742Z,62.02
2022-12-11T05:08:22.345Z,62.39
2022-12-11T05:11:04.165Z,63.49
2022-12-11T05:13:31.564Z,63.04
2022-12-11T05:15:59.541Z,62.36
2022-12-11T05:18:29.126Z,63.11
2022-12-11T05:21:05.049Z,63.29
2022-12-11T05:23:32.554Z,62.87
2022-12-11T05:26:01.943Z,62.87
2022-12-11T05:28:32.382Z,60.99
2022-12-11T05:31:05.771Z,60.99
2022-12-11T05:33:34.387Z,61.43
2022-12-11T05:36:01.495Z,61.43
2022-12-11T05:38:28.532Z,61.74
2022-12-11T05:41:00.719Z,62.45
2022-12-11T05:43:29.693Z,61.32
2022-12-11T05:46:04.584Z,61.54
2022-12-11T05:48:31.663Z,61.94
2022-12-11T05:51:00.685Z,62.38
2022-12-11T05:53:28.730Z,62.43
2022-12-11T05:56:00.805Z,63.16
2022-12-11T05:58:28.673Z,61.96
2022-12-11T06:00:55.660Z,62.34
2022-12-11T06:03:22.616Z,62.20
2022-12-11T06:05:49.522Z,61.71
2022-12-11T06:08:16.466Z,60.58
2022-12-11T06:10:50.263Z,60.27
2022-12-11T06:13:18.446Z,60.42
2022-12-11T06:15:45.375Z,61.09
2022-12-11T06:18:12.490Z,62.02
2022-12-11T06:20:39.641Z,63.12
2022-12-11T06:23:06.721Z,60.52
2022-12-11T06:25:34.475Z,61.20
2022-12-11T06:28:01.585Z,61.27
2022-12-11T06:30:39.012Z,61.13
2022-12-11T06:33:07.498Z,61.81
2022-12-11T06:35:40.237Z,62.41
2022-12-11T06:38:09.504Z,59.84
2022-12-11T06:40:36.597Z,61.32
2022-12-11T06:43:03.648Z,61.59
2022-12-11T06:45:31.049Z,60.84
2022-12-11T06:47:59.092Z,60.94
2022-12-11T06:50:26.870Z,59.52
2022-12-11T06:52:53.743Z,60.11
2022-12-11T06:55:20.760Z,60.33
2022-12-11T06:57:47.830Z,59.06
2022-12-11T07:00:15.432Z,58.31
2022-12-11T07:02:42.427Z,58.67
2022-12-11T07:05:09.638Z,58.45
2022-12-11T07:07:36.836Z,58.13
2022-12-11T07:10:08.435Z,58.15
2022-12-11T07:12:36.080Z,57.58
2022-12-11T07:15:05.287Z,58.68
2022-12-11T07:17:32.763Z,58.90
2022-12-11T07:19:59.775Z,58.32
2022-12-11T07:22:28.586Z,58.53
2022-12-11T07:24:56.149Z,58.52
2022-12-11T07:27:23.409Z,58.60
2022-12-11T07:29:51.266Z,58.21
2022-12-11T07:32:18.334Z,58.16
2022-12-11T07:34:51.371Z,58.22
2022-12-11T07:37:19.046Z,57.89
2022-12-11T07:39:45.907Z,57.75
2022-12-11T07:42:12.842Z,57.09
2022-12-11T07:44:39.813Z,56.66
2022-12-11T07:47:06.741Z,56.90
2022-12-11T07:49:33.634Z,56.96
2022-12-11T07:52:00.673Z,57.29
2022-12-11T07:54:27.590Z,57.46
2022-12-11T07:56:54.512Z,57.16
2022-12-11T07:59:21.622Z,57.00
2022-12-11T08:01:48.627Z,56.97
2022-12-11T08:04:15.992Z,56.20
2022-12-11T08:06:44.020Z,56.46
2022-12-11T08:09:19.075Z,56.85
2022-12-11T08:11:50.115Z,55.88
2022-12-11T08:14:17.067Z,54.60
2022-12-11T08:16:44.902Z,55.46
2022-12-11T08:19:12.784Z,55.67
2022-12-11T08:21:40.685Z,56.31
2022-12-11T08:24:08.944Z,57.46
2022-12-11T08:26:36.716Z,57.89
2022-12-11T08:29:04.362Z,56.62
2022-12-11T08:31:33.387Z,57.53
2022-12-11T08:34:00.467Z,58.00
2022-12-11T08:36:28.168Z,57.99
2022-12-11T08:38:56.907Z,58.13
2022-12-11T08:41:27.496Z,58.21
2022-12-11T08:43:55.525Z,59.38
2022-12-11T08:46:25.406Z,56.93
2022-12-11T08:48:54.134Z,57.50
2022-12-11T08:51:23.616Z,58.41
2022-12-11T08:53:51.565Z,59.81
2022-12-11T08:56:20.917Z,60.63
2022-12-11T08:58:48.293Z,61.36
2022-12-11T09:01:22.187Z,60.49
2022-12-11T09:03:50.390Z,61.77
2022-12-11T09:06:19.857Z,63.97
2022-12-11T09:08:52.213Z,64.85
2022-12-11T09:11:26.904Z,63.37
2022-12-11T09:13:54.895Z,62.95
2022-12-11T09:16:25.227Z,63.86
2022-12-11T09:18:55.001Z,63.25
2022-12-11T09:21:24.662Z,61.32
2022-12-11T09:23:55.132Z,61.24
2022-12-11T09:26:22.495Z,61.11
2022-12-11T09:28:53.452Z,60.78
2022-12-11T09:31:23.899Z,60.53
2022-12-11T09:33:54.263Z,58.42
2022-12-11T09:36:21.386Z,58.63
2022-12-11T09:38:48.842Z,57.70
2022-12-11T09:41:32.911Z,59.10
2022-12-11T09:44:21.393Z,58.53
2022-12-11T09:46:49.126Z,57.35
2022-12-11T09:49:25.244Z,56.47
2022-12-11T09:52:06.372Z,57.68
2022-12-11T09:54:34.000Z,55.50
2022-12-11T09:57:19.437Z,56.06
2022-12-11T10:00:04.259Z,56.24
2022-12-11T10:03:01.043Z,56.33
2022-12-11T10:05:59.668Z,55.93
2022-12-11T10:08:40.262Z,56.75
2022-12-11T10:11:28.519Z,56.09
2022-12-11T10:14:07.085Z,56.35
2022-12-11T10:16:52.119Z,56.40
2022-12-11T10:19:24.811Z,56.05
2022-12-11T10:21:53.345Z,56.65
2022-12-11T10:24:48.924Z,56.71
2022-12-11T10:27:20.071Z,58.67
2022-12-11T10:29:51.877Z,59.04
2022-12-11T10:32:57.475Z,61.43
2022-12-11T10:35:35.178Z,63.71
2022-12-11T10:38:13.346Z,65.12
2022-12-11T10:40:46.822Z,66.48
2022-12-11T10:43:14.158Z,67.68
2022-12-11T10:45:50.895Z,67.81
2022-12-11T10:48:17.857Z,66.22
2022-12-11T10:51:00.376Z,66.93
2022-12-11T10:53:29.123Z,65.37
2022-12-11T10:55:58.983Z,61.79
2022-12-11T10:58:34.282Z,59.98
2022-12-11T11:01:14.392Z,58.50
2022-12-11T11:04:13.931Z,59.72
2022-12-11T11:06:41.185Z,60.06
2022-12-11T11:09:29.702Z,59.75
2022-12-11T11:11:56.723Z,59.50
2022-12-11T11:14:23.817Z,57.82
2022-12-11T11:16:53.003Z,57.58
2022-12-11T11:19:27.593Z,57.64
2022-12-11T11:22:00.881Z,55.61
2022-12-11T11:24:33.227Z,55.58
2022-12-11T11:27:15.710Z,54.94
2022-12-11T11:29:47.678Z,55.53
2022-12-11T11:32:31.151Z,56.03
2022-12-11T11:35:13.737Z,58.44
2022-12-11T11:37:46.595Z,59.61
2022-12-11T11:40:21.490Z,58.62
2022-12-11T11:43:07.965Z,58.01
2022-12-11T11:45:44.117Z,57.00
2022-12-11T11:48:16.725Z,56.17
2022-12-11T11:50:46.895Z,55.85
2022-12-11T11:53:37.670Z,55.60
2022-12-11T11:56:17.335Z,56.52
2022-12-11T11:59:03.165Z,56.46
2022-12-11T12:01:30.484Z,56.73
2022-12-11T12:03:58.107Z,54.91
2022-12-11T12:06:48.972Z,55.88
2022-12-11T12:09:39.338Z,54.83
2022-12-11T12:12:09.724Z,55.96
2022-12-11T12:15:05.794Z,56.95
2022-12-11T12:17:56.272Z,57.32
2022-12-11T12:20:32.326Z,59.22
2022-12-11T12:23:08.370Z,60.74
2022-12-11T12:26:14.955Z,61.99
2022-12-11T12:28:53.151Z,63.09
2022-12-11T12:31:57.804Z,65.70
2022-12-11T12:34:43.070Z,67.71
2022-12-11T12:37:40.121Z,70.72
2022-12-11T12:40:22.762Z,73.48
2022-12-11T12:42:52.673Z,74.56
2022-12-11T12:45:32.226Z,75.92
2022-12-11T12:47:59.429Z,78.25
2022-12-11T12:50:35.045Z,81.97
2022-12-11T12:53:02.540Z,84.45
2022-12-11T12:55:31.932Z,86.55
2022-12-11T12:58:20.635Z,89.61
2022-12-11T13:00:47.951Z,91.24
2022-12-11T13:03:17.819Z,93.06
2022-12-11T13:05:59.274Z,94.69
2022-12-11T13:08:50.795Z,96.26
2022-12-11T13:39:31.781Z,97.45
2022-12-11T13:42:02.820Z,99.65
2022-12-11T13:44:41.841Z,99.00
2022-12-11T13:47:16.142Z,100.00
2022-12-11T13:49:46.273Z,100.00
2022-12-11T13:52:28.872Z,99.58
2022-12-11T13:54:59.522Z,100.00
2022-12-11T13:57:28.739Z,100.00
2022-12-11T13:59:59.696Z,99.63
2022-12-11T14:02:38.371Z,99.23
2022-12-11T14:05:09.833Z,99.10
2022-12-11T14:07:42.508Z,99.81
2022-12-11T14:10:26.842Z,100.00
2022-12-11T14:12:59.715Z,98.72
2022-12-11T14:15:30.121Z,99.71
2022-12-11T14:17:59.465Z,100.00
2022-12-11T14:20:30.347Z,100.00
2022-12-11T14:23:17.505Z,99.98
2022-12-11T14:25:59.966Z,99.80
2022-12-11T14:28:36.090Z,100.00
2022-12-11T14:31:05.872Z,100.00
2022-12-11T14:33:38.468Z,100.00
2022-12-11T14:36:06.847Z,100.00
2022-12-11T14:38:38.422Z,100.00
2022-12-11T14:41:16.892Z,100.00
2022-12-11T14:43:48.777Z,99.76
2022-12-11T14:46:48.650Z,100.00
2022-12-11T14:49:34.630Z,100.00
2022-12-11T14:52:03.155Z,100.00
2022-12-11T14:54:41.261Z,100.00
2022-12-11T14:57:17.902Z,100.00
2022-12-11T14:59:47.841Z,100.00
2022-12-11T15:02:33.399Z,100.00
2022-12-11T15:05:03.573Z,100.00
2022-12-11T15:07:30.904Z,100.00
2022-12-11T15:09:58.680Z,100.00
2022-12-11T15:12:25.968Z,100.00
2022-12-11T15:15:07.106Z,100.00
2022-12-11T15:17:37.238Z,100.00
2022-12-11T15:20:11.634Z,100.00
2022-12-11T15:22:44.923Z,100.00
2022-12-11T15:25:20.746Z,100.00
2022-12-11T15:27:53.101Z,100.00
2022-12-11T15:30:28.553Z,100.00
2022-12-11T15:33:22.310Z,100.00
2022-12-11T15:35:53.845Z,100.00
2022-12-11T15:38:35.524Z,100.00
2022-12-11T15:41:03.791Z,100.00
2022-12-11T15:43:34.882Z,100.00
2022-12-11T15:46:03.503Z,100.00
2022-12-11T15:48:30.469Z,100.00
2022-12-11T15:50:57.518Z,100.00
2022-12-11T15:53:24.780Z,100.00
2022-12-11T15:55:52.790Z,100.00
2022-12-11T15:58:22.031Z,100.00
2022-12-11T16:00:49.319Z,100.00
2022-12-11T16:03:18.910Z,100.00
2022-12-11T16:05:46.859Z,100.00
2022-12-11T16:08:16.633Z,100.00
2022-12-11T16:10:45.345Z,100.00
2022-12-11T16:13:13.250Z,100.00
2022-12-11T16:15:46.207Z,100.00
2022-12-11T16:18:16.535Z,100.00
2022-12-11T16:20:45.176Z,100.00
2022-12-11T16:23:13.647Z,100.00
2022-12-11T16:25:42.301Z,100.00
2022-12-11T16:28:11.127Z,100.00
2022-12-11T16:30:38.693Z,100.00
2022-12-11T16:33:12.540Z,100.00
2022-12-11T16:35:49.481Z,100.00
2022-12-11T16:38:19.705Z,100.00
2022-12-11T16:40:52.729Z,99.34
2022-12-11T16:43:20.884Z,98.71
2022-12-11T16:45:54.599Z,98.57
2022-12-11T16:48:22.209Z,100.00
2022-12-11T16:50:49.144Z,97.41
2022-12-11T16:53:17.573Z,96.95
2022-12-11T16:55:44.788Z,97.12
2022-12-11T16:58:16.300Z,95.37
2022-12-11T17:00:43.383Z,95.68
2022-12-11T17:03:10.923Z,94.52
2022-12-11T17:05:42.752Z,93.97
2022-12-11T17:08:10.237Z,94.94
2022-12-11T17:10:41.748Z,94.78
2022-12-11T17:13:08.916Z,94.42
2022-12-11T17:15:40.611Z,94.42
2022-12-11T17:18:07.822Z,94.35
2022-12-11T17:20:34.864Z,93.59
2022-12-11T17:23:01.860Z,92.56
2022-12-11T17:25:29.082Z,93.37
2022-12-11T17:27:56.984Z,92.14
2022-12-11T17:30:24.100Z,91.54
2022-12-11T17:32:51.129Z,92.83
2022-12-11T17:35:18.542Z,94.08
2022-12-11T17:37:45.517Z,94.10
2022-12-11T17:40:12.461Z,93.06
2022-12-11T17:42:39.524Z,92.85
2022-12-11T17:45:07.286Z,92.02
2022-12-11T17:47:34.608Z,90.72
2022-12-11T17:50:01.611Z,91.02
2022-12-11T17:52:34.412Z,91.43
2022-12-11T17:55:05.110Z,91.51
2022-12-11T17:57:32.254Z,91.29
2022-12-11T17:59:59.372Z,91.70
2022-12-11T18:02:26.590Z,91.29
2022-12-11T18:04:55.137Z,90.77
2022-12-11T18:07:22.840Z,91.89
2022-12-11T18:09:50.397Z,92.00
2022-12-11T18:12:18.126Z,92.06
2022-12-11T18:14:45.063Z,91.55
2022-12-11T18:17:12.506Z,91.59
2022-12-11T18:19:45.688Z,92.17
2022-12-11T18:22:14.141Z,91.92
2022-12-11T18:24:41.170Z,91.22
2022-12-11T18:27:10.998Z,91.82
2022-12-11T18:29:38.407Z,91.34
2022-12-11T18:32:05.554Z,91.32
2022-12-11T18:34:32.582Z,90.92
2022-12-11T18:36:59.709Z,90.77
2022-12-11T18:39:26.873Z,89.66
2022-12-11T18:42:23.945Z,90.32
2022-12-11T18:44:43.364Z,88.44
2022-12-11T18:47:13.578Z,88.70
2022-12-11T18:49:41.383Z,88.53
2022-12-11T18:52:08.646Z,89.13
2022-12-11T18:54:36.447Z,89.15
2022-12-11T18:57:03.929Z,87.96
2022-12-11T18:59:31.129Z,87.21
2022-12-11T19:01:58.632Z,87.60
2022-12-11T19:04:25.549Z,86.88
2022-12-11T19:06:52.988Z,87.02
2022-12-11T19:09:22.867Z,86.79
2022-12-11T19:11:51.501Z,86.50
2022-12-11T19:14:23.136Z,86.62
2022-12-11T19:16:50.885Z,87.17
2022-12-11T19:19:20.834Z,87.53
2022-12-11T19:21:48.778Z,87.36
2022-12-11T19:24:20.072Z,87.67
2022-12-11T19:26:47.348Z,87.38
2022-12-11T19:29:27.112Z,86.92
2022-12-11T19:31:55.828Z,86.89
2022-12-11T19:34:24.103Z,87.63
2022-12-11T19:36:51.491Z,87.52
2022-12-11T19:39:19.747Z,86.39
2022-12-11T19:41:47.120Z,86.51
2022-12-11T19:44:14.489Z,87.10
2022-12-11T19:46:41.784Z,87.08
2022-12-11T19:49:11.245Z,87.38
2022-12-11T19:51:41.375Z,87.45
2022-12-11T19:54:12.334Z,87.99
2022-12-11T19:56:39.289Z,86.98
2022-12-11T19:59:08.828Z,87.67
2022-12-11T20:01:37.696Z,87.76
2022-12-11T20:04:07.731Z,87.19
2022-12-11T20:06:37.357Z,87.69
2022-12-11T20:09:05.346Z,87.69
2022-12-11T20:11:33.484Z,87.63
2022-12-11T20:14:00.877Z,88.25
2022-12-11T20:16:53.731Z,87.95
2022-12-11T20:19:15.517Z,88.20
2022-12-11T20:21:42.758Z,88.93
2022-12-11T20:24:10.455Z,89.12
2022-12-11T20:26:38.253Z,88.75
2022-12-11T20:29:07.934Z,89.18
2022-12-11T20:31:36.584Z,88.85
2022-12-11T20:34:04.836Z,87.56
2022-12-11T20:36:32.231Z,87.50
2022-12-11T20:38:59.325Z,85.81
2022-12-11T20:41:27.588Z,85.49
2022-12-11T20:43:54.541Z,85.65
2022-12-11T20:46:25.357Z,84.98
2022-12-11T20:48:53.496Z,85.43
2022-12-11T20:51:26.127Z,85.13
2022-12-11T20:53:57.649Z,85.39
2022-12-11T20:56:26.905Z,85.74
2022-12-11T20:58:53.826Z,85.82
2022-12-11T21:01:23.291Z,83.49
2022-12-11T21:04:00.554Z,82.13
2022-12-11T21:06:33.127Z,83.14
2022-12-11T21:09:02.988Z,83.43
2022-12-11T21:11:30.241Z,84.33
2022-12-11T21:14:04.656Z,84.73
2022-12-11T21:16:32.176Z,85.06
2022-12-11T21:18:59.491Z,85.64
2022-12-11T21:21:26.871Z,85.61
2022-12-11T21:23:54.754Z,85.94
2022-12-11T21:26:22.254Z,85.68
2022-12-11T21:28:49.265Z,84.97
2022-12-11T21:31:18.270Z,85.20
2022-12-11T21:33:46.150Z,84.49
2022-12-11T21:36:15.350Z,85.33
2022-12-11T21:38:43.916Z,84.92
2022-12-11T21:41:13.614Z,85.17
2022-12-11T21:44:03.217Z,84.59
2022-12-11T21:46:29.904Z,83.53
2022-12-11T21:48:56.884Z,83.09
2022-12-11T21:51:37.657Z,83.02
2022-12-11T21:54:06.975Z,83.52
2022-12-11T21:56:34.592Z,83.58
2022-12-11T21:59:02.687Z,82.46
2022-12-11T22:01:33.582Z,82.21
2022-12-11T22:04:01.247Z,82.10
2022-12-11T22:06:28.398Z,82.56
2022-12-11T22:08:55.450Z,82.41
2022-12-11T22:11:27.085Z,82.69
2022-12-11T22:13:54.580Z,83.08
2022-12-11T22:16:21.750Z,82.76
2022-12-11T22:18:48.905Z,82.26
2022-12-11T22:21:16.532Z,82.02
2022-12-11T22:23:44.645Z,81.63
2022-12-11T22:26:19.519Z,80.75
2022-12-11T22:28:47.163Z,81.19
2022-12-11T22:31:16.823Z,81.39
2022-12-11T22:33:44.665Z,81.36
2022-12-11T22:36:12.105Z,80.68
2022-12-11T22:38:39.717Z,80.92
2022-12-11T22:41:11.775Z,80.56
2022-12-11T22:43:39.011Z,80.83
2022-12-11T22:46:06.306Z,80.57
2022-12-11T22:48:33.534Z,80.66
2022-12-11T22:51:05.345Z,80.55
2022-12-11T22:53:32.405Z,80.64
2022-12-11T22:55:59.598Z,80.44
2022-12-11T22:58:26.596Z,80.63
2022-12-11T23:00:53.633Z,80.06
2022-12-11T23:03:20.731Z,80.31
2022-12-11T23:05:47.736Z,80.71
2022-12-11T23:08:14.755Z,80.90
2022-12-11T23:10:42.164Z,81.07
2022-12-11T23:13:09.123Z,81.43
2022-12-11T23:15:36.253Z,80.96
2022-12-11T23:18:03.331Z,80.92
2022-12-11T23:20:30.380Z,81.22
2022-12-11T23:22:57.866Z,81.32
2022-12-11T23:25:25.035Z,81.45
2022-12-11T23:27:52.126Z,81.22
2022-12-11T23:30:19.062Z,82.28
2022-12-11T23:32:46.115Z,81.67
2022-12-11T23:35:13.381Z,81.88
2022-12-11T23:37:40.598Z,82.53
2022-12-11T23:40:09.197Z,83.09
2022-12-11T23:42:36.320Z,83.41
2022-12-11T23:45:03.594Z,84.12
2022-12-11T23:47:31.004Z,84.19
2022-12-11T23:49:58.101Z,84.74
2022-12-11T23:52:27.999Z,85.63
2022-12-11T23:54:55.477Z,85.71
2022-12-11T23:57:23.447Z,84.81
2022-12-11T23:59:50.521Z,85.23
